Time;durP1;ratioP1;P1;durP2;ratioP2;P2;SDS_P1;SDS_P2;PMS_P1;PMS_P2;Temp;Humidity;BMP_temperature;BMP_pressure;BME280_temperature;BME280_humidity;BME280_pressure;Samples;Min_cycle;Max_cycle;Signal;HPM_P1;HPM_P2
2022/04/17 00:01:29;;;;;;;;;;;7.30;99.90;;;;;;5123405;27;19925;-69
2022/04/17 00:03:55;;;;;;;;;;;7.40;99.90;;;;;;5110262;27;20001;-69
2022/04/17 00:06:20;;;;;;;;;;;7.20;99.90;;;;;;5126581;27;19919;-68
2022/04/17 00:08:46;;;;;;;;;;;7.20;99.90;;;;;;5142159;27;19950;-68
2022/04/17 00:11:12;;;;;;;;;;;7.00;99.90;;;;;;5145354;27;19948;-69
2022/04/17 00:13:37;;;;;;;;;;;7.10;99.90;;;;;;5126300;27;20214;-69
2022/04/17 00:16:03;;;;;;;;;;;7.00;99.90;;;;;;5144142;27;20422;-69
2022/04/17 00:18:29;;;;;;;;;;;7.10;99.90;;;;;;5143775;27;19923;-69
2022/04/17 00:20:54;;;;;;;;;;;7.10;99.90;;;;;;5144889;27;19919;-70
2022/04/17 00:23:20;;;;;;;;;;;7.00;99.90;;;;;;5126760;27;19919;-69
2022/04/17 00:25:45;;;;;;;;;;;7.10;99.90;;;;;;5144850;27;19915;-70
2022/04/17 00:28:11;;;;;;;;;;;7.00;99.90;;;;;;5145246;27;19920;-70
2022/04/17 00:30:36;;;;;;;;;;;7.10;99.90;;;;;;5144132;27;19920;-70
2022/04/17 00:33:02;;;;;;;;;;;7.10;99.90;;;;;;5126485;28;19919;-70
2022/04/17 00:35:28;;;;;;;;;;;7.20;99.90;;;;;;5120087;28;19919;-70
2022/04/17 00:37:53;;;;;;;;;;;7.20;99.90;;;;;;5119794;28;19963;-70
2022/04/17 00:40:19;;;;;;;;;;;7.30;99.90;;;;;;5126124;28;19919;-70
2022/04/17 00:42:45;;;;;;;;;;;7.30;99.90;;;;;;5125212;28;19919;-70
2022/04/17 00:45:10;;;;;;;;;;;7.50;99.90;;;;;;5120314;28;19929;-70
2022/04/17 00:47:36;;;;;;;;;;;7.40;99.90;;;;;;5155448;27;19941;-70
2022/04/17 00:50:02;;;;;;;;;;;7.40;99.90;;;;;;5144388;27;19919;-68
2022/04/17 00:52:28;;;;;;;;;;;7.20;99.90;;;;;;5165542;27;20449;-68
2022/04/17 00:54:54;;;;;;;;;;;7.20;99.90;;;;;;5165602;27;19925;-68
2022/04/17 00:57:20;;;;;;;;;;;7.30;99.90;;;;;;5165831;27;19935;-68
2022/04/17 00:59:48;;;;;;;;;;;7.30;99.90;;;;;;5148063;27;20035;-68
2022/04/17 01:02:15;;;;;;;;;;;7.30;99.90;;;;;;5148746;27;19920;-68
2022/04/17 01:04:40;;;;;;;;;;;7.30;99.90;;;;;;5148192;27;19926;-68
2022/04/17 01:07:06;;;;;;;;;;;7.20;99.90;;;;;;5147693;27;19919;-69
2022/04/17 01:09:33;;;;;;;;;;;7.10;99.90;;;;;;5147041;27;19919;-69
2022/04/17 01:11:58;;;;;;;;;;;7.10;99.90;;;;;;5162781;27;19953;-69
2022/04/17 01:14:26;;;;;;;;;;;7.10;99.90;;;;;;5146983;27;20449;-68
2022/04/17 01:16:52;;;;;;;;;;;7.00;99.90;;;;;;5164006;27;19919;-68
2022/04/17 01:19:18;;;;;;;;;;;6.80;99.90;;;;;;5168987;27;20098;-68
2022/04/17 01:21:46;;;;;;;;;;;6.80;99.90;;;;;;5150477;27;19919;-67
2022/04/17 01:26:57;;;;;;;;;;;6.60;99.90;;;;;;5152044;27;19944;-69
2022/04/17 01:29:25;;;;;;;;;;;6.60;99.90;;;;;;5168891;27;19923;-69
2022/04/17 01:31:51;;;;;;;;;;;6.50;99.90;;;;;;5151096;27;19926;-69
2022/04/17 01:34:17;;;;;;;;;;;6.50;99.90;;;;;;5151517;27;19919;-69
2022/04/17 01:36:43;;;;;;;;;;;6.50;99.90;;;;;;5151040;27;19929;-69
2022/04/17 01:39:09;;;;;;;;;;;6.60;99.90;;;;;;5149783;27;19970;-69
2022/04/17 01:41:34;;;;;;;;;;;6.50;99.90;;;;;;5150279;27;20287;-69
2022/04/17 01:44:00;;;;;;;;;;;6.50;99.90;;;;;;5170293;27;19926;-69
2022/04/17 01:46:25;;;;;;;;;;;6.50;99.90;;;;;;5150838;27;19930;-69
2022/04/17 01:48:51;;;;;;;;;;;6.50;99.90;;;;;;5150237;27;19918;-69
2022/04/17 01:51:16;;;;;;;;;;;6.50;99.90;;;;;;5164450;27;19944;-69
2022/04/17 01:53:42;;;;;;;;;;;6.60;99.90;;;;;;5149870;27;19923;-69
2022/04/17 01:56:07;;;;;;;;;;;6.50;99.90;;;;;;5150151;27;19919;-69
2022/04/17 01:58:33;;;;;;;;;;;6.50;99.90;;;;;;5150725;27;19918;-69
2022/04/17 02:00:58;;;;;;;;;;;6.50;99.90;;;;;;5168573;27;19945;-69
2022/04/17 02:03:24;;;;;;;;;;;6.40;99.90;;;;;;5149998;27;19979;-70
2022/04/17 02:05:50;;;;;;;;;;;6.20;99.90;;;;;;5149859;27;19919;-68
2022/04/17 02:08:16;;;;;;;;;;;6.00;99.90;;;;;;5149795;27;19919;-69
2022/04/17 02:10:42;;;;;;;;;;;5.70;99.90;;;;;;5145373;27;19919;-69
2022/04/17 02:13:08;;;;;;;;;;;5.50;99.90;;;;;;5150022;27;19920;-68
2022/04/17 02:15:33;;;;;;;;;;;5.50;99.90;;;;;;5150499;27;19933;-68
2022/04/17 02:17:59;;;;;;;;;;;5.30;99.90;;;;;;5169744;27;19918;-68
2022/04/17 02:20:25;;;;;;;;;;;5.30;99.90;;;;;;5151066;27;19919;-69
2022/04/17 02:22:50;;;;;;;;;;;5.20;99.90;;;;;;5143751;27;20533;-69
2022/04/17 02:25:16;;;;;;;;;;;5.20;99.90;;;;;;5149940;27;19919;-69
2022/04/17 02:27:41;;;;;;;;;;;5.20;99.90;;;;;;5149999;27;20010;-69
2022/04/17 02:30:08;;;;;;;;;;;5.20;99.90;;;;;;5149144;27;19926;-68
2022/04/17 02:32:34;;;;;;;;;;;5.00;99.90;;;;;;5166913;27;19962;-68
2022/04/17 02:34:59;;;;;;;;;;;4.80;99.90;;;;;;5145534;27;19923;-69
2022/04/17 02:37:25;;;;;;;;;;;4.60;99.90;;;;;;5167775;27;19923;-69
2022/04/17 02:39:51;;;;;;;;;;;4.50;99.90;;;;;;5148929;27;19926;-70
2022/04/17 02:42:16;;;;;;;;;;;4.50;99.90;;;;;;5149409;27;19926;-69
2022/04/17 02:44:42;;;;;;;;;;;4.60;99.90;;;;;;5167728;27;20002;-69
2022/04/17 02:49:52;;;;;;;;;;;4.60;99.90;;;;;;5138210;27;19926;-68
2022/04/17 02:52:17;;;;;;;;;;;4.60;99.90;;;;;;5149053;27;19919;-68
2022/04/17 02:54:43;;;;;;;;;;;4.60;99.90;;;;;;5148830;27;19919;-68
2022/04/17 02:57:08;;;;;;;;;;;4.50;99.90;;;;;;5148542;27;19923;-68
2022/04/17 02:59:34;;;;;;;;;;;4.60;99.90;;;;;;5167493;27;19918;-67
2022/04/17 03:07:29;;;;;;;;;;;4.60;99.90;;;;;;5147607;27;20398;-68
2022/04/17 03:09:54;;;;;;;;;;;4.30;99.90;;;;;;5148738;27;19923;-68
2022/04/17 03:12:20;;;;;;;;;;;4.20;99.90;;;;;;5145418;27;19923;-68
2022/04/17 03:14:46;;;;;;;;;;;4.10;99.90;;;;;;5149710;27;20032;-69
2022/04/17 03:17:12;;;;;;;;;;;4.10;99.90;;;;;;5148983;27;19955;-69
2022/04/17 03:19:37;;;;;;;;;;;4.20;99.90;;;;;;5148651;27;19919;-69
2022/04/17 03:22:04;;;;;;;;;;;4.00;99.90;;;;;;5148214;27;19933;-69
2022/04/17 03:24:31;;;;;;;;;;;3.70;99.90;;;;;;5149316;27;19919;-69
2022/04/17 03:26:57;;;;;;;;;;;3.70;99.90;;;;;;5149569;27;19954;-69
2022/04/17 03:29:23;;;;;;;;;;;3.60;99.90;;;;;;5149667;27;19945;-69
2022/04/17 03:31:48;;;;;;;;;;;3.50;99.90;;;;;;5149146;27;19919;-69
2022/04/17 03:34:14;;;;;;;;;;;3.50;99.90;;;;;;5148590;27;19923;-69
2022/04/17 03:36:39;;;;;;;;;;;3.50;99.90;;;;;;5149187;27;19922;-69
2022/04/17 03:39:05;;;;;;;;;;;3.60;99.90;;;;;;5166296;27;19922;-69
2022/04/17 03:41:31;;;;;;;;;;;3.60;99.90;;;;;;5147536;27;19919;-69
2022/04/17 03:43:57;;;;;;;;;;;3.80;99.90;;;;;;5130216;27;20026;-69
2022/04/17 03:46:22;;;;;;;;;;;3.70;99.90;;;;;;5147707;27;19923;-69
2022/04/17 03:48:48;;;;;;;;;;;3.80;99.90;;;;;;5166165;27;19923;-69
2022/04/17 03:51:14;;;;;;;;;;;3.70;99.90;;;;;;5167573;27;19923;-69
2022/04/17 03:53:39;;;;;;;;;;;3.60;99.90;;;;;;5166709;27;19930;-69
2022/04/17 03:56:05;;;;;;;;;;;3.50;99.90;;;;;;5145433;27;19994;-69
2022/04/17 03:58:31;;;;;;;;;;;3.30;99.90;;;;;;5147886;27;19915;-68
2022/04/17 04:00:56;;;;;;;;;;;3.20;99.90;;;;;;5148424;27;19923;-68
2022/04/17 04:03:22;;;;;;;;;;;3.00;99.90;;;;;;5164892;27;19922;-69
2022/04/17 04:05:47;;;;;;;;;;;2.90;99.90;;;;;;5167338;27;19929;-69
2022/04/17 04:08:13;;;;;;;;;;;2.90;99.90;;;;;;5148551;27;19963;-69
2022/04/17 04:10:39;;;;;;;;;;;2.80;99.90;;;;;;5166080;27;19988;-68
2022/04/17 04:13:04;;;;;;;;;;;2.70;99.90;;;;;;5147753;27;19929;-69
2022/04/17 04:15:30;;;;;;;;;;;2.70;99.90;;;;;;5159206;27;19926;-68
2022/04/17 04:17:55;;;;;;;;;;;2.80;99.90;;;;;;5166029;27;19919;-69
2022/04/17 04:20:21;;;;;;;;;;;2.80;99.90;;;;;;5147653;27;19919;-69
2022/04/17 04:22:47;;;;;;;;;;;2.70;99.90;;;;;;5162514;27;19926;-69
2022/04/17 04:25:12;;;;;;;;;;;2.80;99.90;;;;;;5148273;27;19923;-69
2022/04/17 04:30:22;;;;;;;;;;;3.00;99.90;;;;;;5143319;27;19940;-69
2022/04/17 04:32:52;;;;;;;;;;;3.10;99.90;;;;;;5147025;27;19919;-68
2022/04/17 04:35:18;;;;;;;;;;;3.10;99.90;;;;;;5165225;27;20089;-69
2022/04/17 04:37:44;;;;;;;;;;;3.20;99.90;;;;;;5165413;27;19919;-69
2022/04/17 04:40:10;;;;;;;;;;;3.30;99.90;;;;;;5147121;27;19926;-69
2022/04/17 04:42:36;;;;;;;;;;;3.30;99.90;;;;;;5165016;27;19915;-69
2022/04/17 04:47:46;;;;;;;;;;;3.30;99.90;;;;;;5164098;27;19972;-69
2022/04/17 04:50:11;;;;;;;;;;;3.40;99.90;;;;;;5164522;27;20002;-69
2022/04/17 04:52:37;;;;;;;;;;;3.10;99.90;;;;;;5146892;27;19926;-69
2022/04/17 04:55:05;;;;;;;;;;;3.00;99.90;;;;;;5133658;27;19979;-69
2022/04/17 04:57:31;;;;;;;;;;;3.00;99.90;;;;;;5168996;27;19980;-69
2022/04/17 04:59:57;;;;;;;;;;;3.00;99.90;;;;;;5151481;27;20022;-69
2022/04/17 05:02:22;;;;;;;;;;;3.00;99.90;;;;;;5151170;27;19923;-69
2022/04/17 05:04:48;;;;;;;;;;;2.90;99.90;;;;;;5151566;27;19966;-69
2022/04/17 05:07:13;;;;;;;;;;;3.10;99.90;;;;;;5168524;27;20363;-69
2022/04/17 05:09:39;;;;;;;;;;;3.10;99.90;;;;;;5128467;27;19962;-69
2022/04/17 05:12:04;;;;;;;;;;;3.10;99.90;;;;;;5169868;27;19919;-69
2022/04/17 05:14:31;;;;;;;;;;;3.10;99.90;;;;;;5169407;27;19919;-69
2022/04/17 05:16:56;;;;;;;;;;;3.20;99.90;;;;;;5151304;27;19930;-69
2022/04/17 05:19:27;;;;;;;;;;;3.20;99.90;;;;;;5134250;27;19922;-69
2022/04/17 05:21:57;;;;;;;;;;;3.20;99.90;;;;;;5150189;27;19945;-69
2022/04/17 05:24:23;;;;;;;;;;;3.30;99.90;;;;;;5150953;27;19922;-69
2022/04/17 05:26:49;;;;;;;;;;;3.40;99.90;;;;;;5168745;27;19915;-69
2022/04/17 05:29:14;;;;;;;;;;;3.50;99.90;;;;;;5152146;27;19930;-69
2022/04/17 05:31:40;;;;;;;;;;;3.50;99.90;;;;;;5170119;27;19970;-69
2022/04/17 05:34:06;;;;;;;;;;;3.50;99.90;;;;;;5149733;27;19919;-69
2022/04/17 05:36:31;;;;;;;;;;;3.70;99.90;;;;;;5148769;27;19958;-69
2022/04/17 05:38:57;;;;;;;;;;;3.80;99.90;;;;;;5146950;27;19923;-69
2022/04/17 05:41:23;;;;;;;;;;;3.90;99.90;;;;;;5147864;27;19986;-69
2022/04/17 05:43:49;;;;;;;;;;;3.90;99.90;;;;;;5133380;27;19923;-69
2022/04/17 05:46:14;;;;;;;;;;;4.10;99.90;;;;;;5149959;27;19987;-69
2022/04/17 05:48:40;;;;;;;;;;;4.20;99.90;;;;;;5150274;27;19927;-69
2022/04/17 05:51:06;;;;;;;;;;;4.30;99.90;;;;;;5150269;27;19940;-69
2022/04/17 05:53:32;;;;;;;;;;;4.40;99.90;;;;;;5149847;27;19978;-69
2022/04/17 05:55:58;;;;;;;;;;;4.60;99.90;;;;;;5168647;27;20242;-69
2022/04/17 05:58:23;;;;;;;;;;;4.60;99.90;;;;;;5147872;27;19923;-69
2022/04/17 06:00:49;;;;;;;;;;;4.80;99.90;;;;;;5149740;27;20006;-69
2022/04/17 06:03:15;;;;;;;;;;;4.80;99.90;;;;;;5150355;27;19923;-69
2022/04/17 06:05:41;;;;;;;;;;;4.90;99.90;;;;;;5168031;27;20328;-69
2022/04/17 06:08:07;;;;;;;;;;;5.20;99.90;;;;;;5179619;27;19926;-69
2022/04/17 06:10:33;;;;;;;;;;;5.10;99.90;;;;;;5147546;27;19923;-69
2022/04/17 06:12:58;;;;;;;;;;;5.20;99.90;;;;;;5149910;27;19927;-69
2022/04/17 06:15:24;;;;;;;;;;;5.30;99.90;;;;;;5166418;27;19930;-69
2022/04/17 06:17:50;;;;;;;;;;;5.40;99.90;;;;;;5168795;27;19972;-69
2022/04/17 06:20:16;;;;;;;;;;;5.50;99.90;;;;;;5169587;27;19919;-69
2022/04/17 06:22:41;;;;;;;;;;;5.40;99.90;;;;;;5150595;27;19919;-69
2022/04/17 06:25:11;;;;;;;;;;;5.60;99.90;;;;;;5167959;27;19940;-69
2022/04/17 06:27:44;;;;;;;;;;;5.60;99.90;;;;;;5150681;27;19964;-69
2022/04/17 06:30:11;;;;;;;;;;;5.70;99.90;;;;;;5150413;27;19923;-69
2022/04/17 06:32:37;;;;;;;;;;;5.80;99.90;;;;;;5149946;27;19951;-69
2022/04/17 06:35:04;;;;;;;;;;;5.90;99.90;;;;;;5142348;27;20337;-69
2022/04/17 06:37:30;;;;;;;;;;;6.10;99.90;;;;;;5149776;27;19923;-69
2022/04/17 06:39:57;;;;;;;;;;;6.10;99.90;;;;;;5149429;27;19926;-70
2022/04/17 06:42:23;;;;;;;;;;;6.10;99.90;;;;;;5166534;27;19923;-72
2022/04/17 06:44:48;;;;;;;;;;;6.20;99.90;;;;;;5148939;27;19926;-72
2022/04/17 06:47:14;;;;;;;;;;;6.30;99.90;;;;;;5144800;27;19930;-72
2022/04/17 06:49:39;;;;;;;;;;;6.40;99.90;;;;;;5149311;27;19982;-70
2022/04/17 06:52:05;;;;;;;;;;;6.40;99.90;;;;;;5149797;27;19919;-70
2022/04/17 06:54:30;;;;;;;;;;;6.50;99.90;;;;;;5156715;27;19923;-71
2022/04/17 06:56:56;;;;;;;;;;;6.70;99.90;;;;;;5148544;27;19948;-72
2022/04/17 06:59:22;;;;;;;;;;;6.80;99.90;;;;;;5164045;27;20013;-67
2022/04/17 07:01:48;;;;;;;;;;;6.90;99.90;;;;;;5149900;27;19919;-73
2022/04/17 07:04:13;;;;;;;;;;;7.00;99.90;;;;;;5148567;27;20279;-72
2022/04/17 07:06:39;;;;;;;;;;;7.10;99.90;;;;;;5149036;27;19919;-71
2022/04/17 07:09:05;;;;;;;;;;;7.20;99.90;;;;;;5149199;27;19991;-71
2022/04/17 07:11:30;;;;;;;;;;;7.20;99.90;;;;;;5167181;27;19919;-72
2022/04/17 07:13:57;;;;;;;;;;;7.40;99.90;;;;;;5148459;27;19918;-72
2022/04/17 07:16:22;;;;;;;;;;;7.50;99.90;;;;;;5149536;27;19923;-72
2022/04/17 07:18:48;;;;;;;;;;;7.50;99.90;;;;;;5148604;27;20067;-71
2022/04/17 07:21:13;;;;;;;;;;;7.70;99.90;;;;;;5148166;27;20000;-71
2022/04/17 07:23:39;;;;;;;;;;;7.80;99.90;;;;;;5129143;27;19925;-71
2022/04/17 07:26:05;;;;;;;;;;;7.70;99.90;;;;;;5148318;27;20382;-72
2022/04/17 07:28:30;;;;;;;;;;;8.00;99.90;;;;;;5147914;27;19919;-73
2022/04/17 07:30:56;;;;;;;;;;;8.40;99.90;;;;;;5165028;27;19980;-74
2022/04/17 07:33:21;;;;;;;;;;;8.20;99.90;;;;;;5147024;27;19920;-74
2022/04/17 07:35:47;;;;;;;;;;;8.20;99.90;;;;;;5147199;27;19942;-73
2022/04/17 07:38:13;;;;;;;;;;;8.30;99.90;;;;;;5166428;27;19923;-74
2022/04/17 07:40:39;;;;;;;;;;;8.40;99.90;;;;;;5147480;27;19923;-74
2022/04/17 07:43:05;;;;;;;;;;;8.50;99.90;;;;;;5147502;27;19967;-75
2022/04/17 07:45:31;;;;;;;;;;;8.40;99.90;;;;;;5166175;27;19919;-74
2022/04/17 07:47:57;;;;;;;;;;;8.70;99.90;;;;;;5149033;27;19961;-73
2022/04/17 07:50:27;;;;;;;;;;;8.90;99.90;;;;;;5149090;27;19975;-73
2022/04/17 07:52:53;;;;;;;;;;;8.80;99.90;;;;;;5148035;27;20366;-75
2022/04/17 07:55:19;;;;;;;;;;;8.80;99.90;;;;;;5147129;27;19930;-74
2022/04/17 08:00:24;;;;;;;;;;;9.10;99.90;;;;;;5149117;27;19986;-74
2022/04/17 08:02:53;;;;;;;;;;;9.00;99.90;;;;;;5148807;27;19926;-74
2022/04/17 08:05:20;;;;;;;;;;;9.00;99.90;;;;;;5130976;27;19919;-78
2022/04/17 08:07:46;;;;;;;;;;;9.10;99.90;;;;;;5148303;27;19918;-78
2022/04/17 08:10:12;;;;;;;;;;;9.40;99.90;;;;;;5147038;27;19957;-74
2022/04/17 08:12:38;;;;;;;;;;;9.40;99.90;;;;;;5166372;27;19926;-79
2022/04/17 08:15:04;;;;;;;;;;;9.50;99.90;;;;;;5166806;27;19918;-71
2022/04/17 08:17:29;;;;;;;;;;;9.50;99.90;;;;;;5148791;27;19925;-71
2022/04/17 08:19:55;;;;;;;;;;;9.50;99.90;;;;;;5129989;27;19925;-70
2022/04/17 08:22:20;;;;;;;;;;;9.60;99.90;;;;;;5148130;27;19977;-70
2022/04/17 08:24:46;;;;;;;;;;;9.60;99.90;;;;;;5130072;27;19923;-76
2022/04/17 08:27:12;;;;;;;;;;;9.60;99.90;;;;;;5165827;27;19937;-76
2022/04/17 08:29:37;;;;;;;;;;;9.60;99.90;;;;;;5147925;27;19915;-70
2022/04/17 08:32:03;;;;;;;;;;;9.70;99.90;;;;;;5148008;27;20370;-71
2022/04/17 08:34:29;;;;;;;;;;;9.70;99.90;;;;;;5146404;27;19951;-73
2022/04/17 08:36:54;;;;;;;;;;;9.70;99.90;;;;;;5146910;27;19918;-73
2022/04/17 08:39:20;;;;;;;;;;;9.70;99.90;;;;;;5139678;27;19927;-73
2022/04/17 08:41:46;;;;;;;;;;;9.80;99.90;;;;;;5146820;27;19925;-71
2022/04/17 08:44:12;;;;;;;;;;;9.90;99.90;;;;;;5147980;27;19974;-73
2022/04/17 08:46:37;;;;;;;;;;;10.10;99.90;;;;;;5141665;28;19965;-72
2022/04/17 08:49:03;;;;;;;;;;;10.10;99.90;;;;;;5126700;28;19931;-72
2022/04/17 08:51:29;;;;;;;;;;;10.10;99.90;;;;;;5141737;28;19923;-72
2022/04/17 08:53:56;;;;;;;;;;;10.00;99.90;;;;;;5144726;28;19919;-72
2022/04/17 08:56:21;;;;;;;;;;;10.10;99.90;;;;;;5144761;28;19919;-71
2022/04/17 08:58:47;;;;;;;;;;;10.10;99.90;;;;;;5146283;27;19926;-72
2022/04/17 09:01:19;;;;;;;;;;;10.20;99.90;;;;;;5142863;28;19924;-72
2022/04/17 09:03:46;;;;;;;;;;;10.30;99.90;;;;;;5078424;28;20367;-73
2022/04/17 09:06:11;;;;;;;;;;;10.40;99.90;;;;;;5125239;28;19926;-72
2022/04/17 09:08:55;;;;;;;;;;;10.60;99.90;;;;;;5142517;28;19923;-72
2022/04/17 09:11:24;;;;;;;;;;;10.60;99.90;;;;;;5139178;28;19935;-72
2022/04/17 09:13:53;;;;;;;;;;;10.60;99.90;;;;;;5143027;28;19923;-72
2022/04/17 09:16:24;;;;;;;;;;;10.60;99.90;;;;;;5126416;28;20402;-71
2022/04/17 09:18:49;;;;;;;;;;;10.70;99.90;;;;;;5123521;28;19938;-71
2022/04/17 09:21:28;;;;;;;;;;;10.90;99.90;;;;;;5143521;28;19927;-71
2022/04/17 09:23:53;;;;;;;;;;;11.00;99.90;;;;;;5123905;28;20417;-71
2022/04/17 09:26:23;;;;;;;;;;;11.00;99.90;;;;;;5136164;28;19923;-70
2022/04/17 09:28:48;;;;;;;;;;;11.10;99.90;;;;;;5125266;28;19923;-71
2022/04/17 09:31:14;;;;;;;;;;;11.10;99.90;;;;;;5107968;28;19923;-71
2022/04/17 09:33:41;;;;;;;;;;;11.30;99.90;;;;;;5139890;28;19919;-71
2022/04/17 09:36:08;;;;;;;;;;;11.40;99.90;;;;;;5122798;28;19923;-71
2022/04/17 09:38:34;;;;;;;;;;;11.40;99.90;;;;;;5093821;28;19916;-71
2022/04/17 09:41:07;;;;;;;;;;;11.50;99.90;;;;;;5130194;27;19923;-71
2022/04/17 09:43:34;;;;;;;;;;;11.60;99.90;;;;;;5112832;27;20525;-70
2022/04/17 09:46:00;;;;;;;;;;;11.70;99.90;;;;;;5124819;27;19927;-71
2022/04/17 09:48:33;;;;;;;;;;;11.90;99.90;;;;;;5110103;27;19919;-71
2022/04/17 09:50:59;;;;;;;;;;;11.80;99.90;;;;;;5104072;27;19941;-82
2022/04/17 09:53:31;;;;;;;;;;;11.90;99.90;;;;;;5092136;27;19923;-70
2022/04/17 09:56:07;;;;;;;;;;;11.80;99.90;;;;;;5137039;27;19976;-71
2022/04/17 09:58:36;;;;;;;;;;;11.90;99.90;;;;;;5111313;27;19959;-67
2022/04/17 10:01:03;;;;;;;;;;;12.00;99.90;;;;;;5117044;27;20294;-70
2022/04/17 10:03:29;;;;;;;;;;;11.90;99.90;;;;;;5101619;27;19923;-75
2022/04/17 10:05:55;;;;;;;;;;;12.10;99.90;;;;;;5133773;27;19927;-77
2022/04/17 10:08:21;;;;;;;;;;;12.10;99.90;;;;;;5093659;27;19942;-75
2022/04/17 10:10:47;;;;;;;;;;;12.20;99.90;;;;;;5136262;27;20462;-74
2022/04/17 10:13:12;;;;;;;;;;;12.10;99.90;;;;;;5108285;27;19994;-75
2022/04/17 10:15:38;;;;;;;;;;;12.40;99.90;;;;;;5124155;27;19963;-68
2022/04/17 10:18:04;;;;;;;;;;;12.50;99.90;;;;;;5113510;27;19927;-68
2022/04/17 10:20:30;;;;;;;;;;;12.50;99.90;;;;;;5105214;27;19926;-64
2022/04/17 10:22:57;;;;;;;;;;;12.50;99.90;;;;;;5094955;27;19986;-68
2022/04/17 10:25:23;;;;;;;;;;;12.60;99.90;;;;;;5119460;27;19940;-69
2022/04/17 10:27:51;;;;;;;;;;;12.70;99.90;;;;;;5113527;27;19915;-68
2022/04/17 10:30:18;;;;;;;;;;;12.80;99.90;;;;;;5124469;27;19919;-68
2022/04/17 10:33:03;;;;;;;;;;;13.00;99.90;;;;;;5110877;27;19927;-69
2022/04/17 10:35:35;;;;;;;;;;;12.90;99.90;;;;;;5122024;27;19965;-69
2022/04/17 10:38:20;;;;;;;;;;;13.10;99.90;;;;;;5111142;27;20003;-69
2022/04/17 10:40:51;;;;;;;;;;;13.00;99.90;;;;;;5102293;27;19925;-69
2022/04/17 10:43:17;;;;;;;;;;;13.10;99.90;;;;;;5111789;27;19946;-69
2022/04/17 10:46:01;;;;;;;;;;;13.10;97.70;;;;;;5137727;27;20598;-69
2022/04/17 10:48:27;;;;;;;;;;;13.20;96.30;;;;;;5128973;27;19919;-69
2022/04/17 10:50:53;;;;;;;;;;;13.10;97.20;;;;;;5120594;27;19919;-69
2022/04/17 10:53:24;;;;;;;;;;;13.00;98.80;;;;;;5088630;28;19972;-69
2022/04/17 10:56:06;;;;;;;;;;;13.00;98.40;;;;;;5117703;27;20160;-69
2022/04/17 10:58:40;;;;;;;;;;;13.00;98.60;;;;;;5127136;27;19988;-69
2022/04/17 11:01:06;;;;;;;;;;;13.10;98.30;;;;;;5111400;27;20010;-69
2022/04/17 11:03:35;;;;;;;;;;;13.10;98.70;;;;;;5099426;27;19920;-69
2022/04/17 11:06:20;;;;;;;;;;;13.20;97.20;;;;;;5115937;27;19945;-68
2022/04/17 11:08:52;;;;;;;;;;;13.30;97.40;;;;;;5113676;27;19927;-74
2022/04/17 11:11:18;;;;;;;;;;;13.20;97.10;;;;;;5120091;27;19923;-68
2022/04/17 11:14:02;;;;;;;;;;;13.30;97.10;;;;;;5109637;27;19924;-69
2022/04/17 11:16:28;;;;;;;;;;;13.40;98.10;;;;;;5121446;27;19958;-71
2022/04/17 11:18:55;;;;;;;;;;;13.40;98.10;;;;;;5108140;27;19919;-70
2022/04/17 11:21:35;;;;;;;;;;;13.40;99.20;;;;;;5120280;27;19924;-71
2022/04/17 11:24:01;;;;;;;;;;;13.40;97.60;;;;;;5109894;27;19919;-70
2022/04/17 11:26:45;;;;;;;;;;;13.60;98.00;;;;;;5121813;27;19950;-69
2022/04/17 11:29:11;;;;;;;;;;;13.70;96.40;;;;;;5110439;27;19923;-71
2022/04/17 11:31:37;;;;;;;;;;;13.70;95.10;;;;;;5120169;27;19924;-69
2022/04/17 11:34:02;;;;;;;;;;;13.70;95.80;;;;;;5110589;27;19923;-68
2022/04/17 11:36:28;;;;;;;;;;;13.70;97.10;;;;;;5120439;27;20114;-68
2022/04/17 11:38:55;;;;;;;;;;;13.80;97.40;;;;;;5126254;27;20341;-69
2022/04/17 11:41:23;;;;;;;;;;;13.70;97.20;;;;;;5136011;27;20278;-70
2022/04/17 11:44:01;;;;;;;;;;;13.90;95.70;;;;;;5110032;27;20015;-69
2022/04/17 11:46:27;;;;;;;;;;;14.00;99.70;;;;;;5125160;27;20425;-70
2022/04/17 11:48:57;;;;;;;;;;;14.50;97.30;;;;;;5130858;27;19978;-70
2022/04/17 11:51:23;;;;;;;;;;;14.60;96.20;;;;;;5135535;27;19923;-71
2022/04/17 11:53:48;;;;;;;;;;;14.70;89.60;;;;;;5119603;27;19923;-70
2022/04/17 11:56:14;;;;;;;;;;;14.70;86.90;;;;;;5121711;27;19926;-70
2022/04/17 11:58:39;;;;;;;;;;;14.50;89.90;;;;;;5109706;27;19922;-70
2022/04/17 12:01:06;;;;;;;;;;;14.70;91.30;;;;;;5120841;27;19975;-70
2022/04/17 12:03:36;;;;;;;;;;;14.90;81.20;;;;;;5091374;27;19923;-72
2022/04/17 12:20:30;;;;;;;8.68;6.93;;;15.40;72.80;;;;;;5045947;27;1263986;-68
2022/04/17 12:22:55;;;;;;;8.05;6.32;;;15.60;73.50;;;;;;5074938;28;20036;-68
2022/04/17 12:25:24;;;;;;;5.90;4.95;;;15.60;72.60;;;;;;5083130;28;20121;-68
2022/04/17 12:27:51;;;;;;;8.38;6.00;;;15.50;73.00;;;;;;5084966;28;20051;-68
2022/04/17 12:30:19;;;;;;;6.53;5.78;;;15.50;75.50;;;;;;5086334;28;20303;-68
2022/04/17 12:32:46;;;;;;;7.28;6.50;;;15.60;73.90;;;;;;5064036;28;20391;-67
2022/04/17 12:35:15;;;;;;;8.23;5.97;;;15.70;72.60;;;;;;5062419;28;20052;-67
2022/04/17 12:37:41;;;;;;;7.55;6.38;;;15.70;72.40;;;;;;5069777;28;20116;-67
2022/04/17 12:40:08;;;;;;;7.25;6.45;;;15.80;69.00;;;;;;5094085;28;20428;-67
2022/04/17 12:42:33;;;;;;;8.70;5.95;;;15.90;71.20;;;;;;5082209;28;20056;-67
2022/04/17 12:44:59;;;;;;;7.20;6.50;;;16.00;72.00;;;;;;5077451;28;20040;-67
2022/04/17 12:47:25;;;;;;;8.45;6.88;;;16.10;70.90;;;;;;5061098;28;20114;-67
2022/04/17 12:49:58;;;;;;;7.20;6.22;;;16.40;75.10;;;;;;5072168;28;20112;-67
2022/04/17 12:52:24;;;;;;;8.75;5.95;;;16.50;70.90;;;;;;5062448;28;20048;-68
2022/04/17 12:54:49;;;;;;;7.55;6.68;;;16.40;68.40;;;;;;5070115;28;20083;-67
2022/04/17 12:57:20;;;;;;;7.15;6.45;;;16.40;66.90;;;;;;5025846;28;20070;-67
2022/04/17 12:59:50;;;;;;;8.73;6.97;;;16.50;64.60;;;;;;5035677;28;20063;-67
2022/04/17 13:02:26;;;;;;;7.25;6.55;;;16.60;64.10;;;;;;5032373;28;20061;-66
2022/04/17 13:04:53;;;;;;;7.78;6.30;;;16.70;66.80;;;;;;5051963;28;20048;-67
2022/04/17 13:07:19;;;;;;;8.10;6.65;;;16.80;70.00;;;;;;5041443;28;20289;-67
2022/04/17 13:09:53;;;;;;;8.18;6.32;;;17.00;67.80;;;;;;5051189;28;20181;-67
2022/04/17 13:12:57;;;;;;;8.77;7.47;;;17.20;67.90;;;;;;5059339;28;20068;-67
2022/04/17 13:15:33;;;;;;;9.60;7.35;;;17.30;64.20;;;;;;4996077;28;20042;-68
2022/04/17 13:17:59;;;;;;;7.15;6.45;;;17.50;62.20;;;;;;4981377;28;20049;-67
2022/04/17 13:20:27;;;;;;;8.00;7.03;;;17.40;62.60;;;;;;4990123;28;20056;-67
2022/04/17 13:22:53;;;;;;;8.70;7.55;;;17.40;62.60;;;;;;4972737;28;20085;-67
2022/04/17 13:25:20;;;;;;;9.88;6.88;;;17.60;60.80;;;;;;4971536;28;20051;-67
2022/04/17 13:27:47;;;;;;;8.25;6.97;;;17.60;61.90;;;;;;4962212;28;20043;-68
2022/04/17 13:30:15;;;;;;;8.18;6.75;;;17.70;61.60;;;;;;4966923;28;20110;-67
2022/04/17 13:32:41;;;;;;;8.65;6.85;;;17.80;61.20;;;;;;4964447;28;20238;-67
2022/04/17 13:35:08;;;;;;;7.28;6.57;;;17.90;60.40;;;;;;4953955;28;20055;-68
2022/04/17 13:40:20;;;;;;;7.35;6.45;;;18.00;58.90;;;;;;4951043;28;20125;-69
2022/04/17 13:42:46;;;;;;;7.47;6.38;;;18.20;58.10;;;;;;4956922;28;20074;-68
2022/04/17 13:45:12;;;;;;;8.77;6.45;;;18.40;57.40;;;;;;4950774;28;20058;-69
2022/04/17 13:47:39;;;;;;;7.78;6.28;;;18.70;55.90;;;;;;5033000;28;20144;-68
2022/04/17 13:50:07;;;;;;;8.10;6.43;;;19.20;54.90;;;;;;5062166;28;20080;-69
2022/04/17 13:52:34;;;;;;;7.50;6.32;;;20.20;54.80;;;;;;5052194;28;20052;-69
2022/04/17 13:55:01;;;;;;;8.65;6.20;;;21.30;54.50;;;;;;5062992;28;20151;-68
2022/04/17 13:57:26;;;;;;;9.15;6.70;;;22.20;52.30;;;;;;5057296;28;20076;-69
2022/04/17 13:59:52;;;;;;;7.50;6.00;;;23.30;49.40;;;;;;5044445;28;20061;-69
2022/04/17 14:02:18;;;;;;;8.30;5.93;;;24.10;46.20;;;;;;5046195;28;20277;-69
2022/04/17 14:04:44;;;;;;;7.72;6.32;;;24.90;45.30;;;;;;5043644;28;20060;-69
2022/04/17 14:07:10;;;;;;;7.07;5.60;;;25.20;43.50;;;;;;5053940;28;20094;-70
2022/04/17 14:09:38;;;;;;;6.05;5.45;;;25.90;42.30;;;;;;5026729;28;20045;-69
2022/04/17 14:12:06;;;;;;;6.07;5.10;;;26.30;41.70;;;;;;5053583;28;20097;-69
2022/04/17 14:14:33;;;;;;;6.53;5.78;;;26.80;40.70;;;;;;5062413;28;20145;-70
2022/04/17 14:16:59;;;;;;;7.15;6.45;;;27.10;38.50;;;;;;5046059;28;20044;-70
2022/04/17 14:19:24;;;;;;;7.38;5.45;;;26.90;37.80;;;;;;5056953;28;20128;-69
2022/04/17 14:21:50;;;;;;;5.95;5.45;;;27.10;38.80;;;;;;5072617;28;20127;-69
2022/04/17 14:24:16;;;;;;;6.03;5.53;;;27.60;37.70;;;;;;5056125;28;20040;-69
2022/04/17 14:26:41;;;;;;;7.03;5.40;;;28.20;37.40;;;;;;5045097;28;20356;-69
2022/04/17 14:29:07;;;;;;;6.03;5.43;;;28.60;36.80;;;;;;5056230;28;20319;-69
2022/04/17 14:31:33;;;;;;;6.45;5.47;;;28.70;36.70;;;;;;5045445;28;20048;-69
2022/04/17 14:33:59;;;;;;;5.78;5.20;;;28.30;35.10;;;;;;5075091;28;20052;-69
2022/04/17 14:36:26;;;;;;;5.20;4.70;;;28.70;34.90;;;;;;5033345;28;20086;-69
2022/04/17 14:38:53;;;;;;;5.57;4.75;;;29.20;35.40;;;;;;5054992;28;20060;-70
2022/04/17 14:41:18;;;;;;;5.20;4.70;;;29.60;34.30;;;;;;5050900;28;20144;-70
2022/04/17 14:43:44;;;;;;;4.82;4.32;;;30.10;35.40;;;;;;5033184;28;20076;-69